Milwaukee, Wisconsin
Traffic Map
Current Weather Conditions
Milwaukee, Wisconsin
Broken Clouds
Broken Clouds
32°
Feels Like: 25°
Wind Chill: 25° Ceiling: 12000
Heat Index: 32° Visibility: 8mi
Dew Point: 26° Wind: 8mph
Humidity: 79% Direction: 170° (S)
Pressure: 29.9in Gusts: 0mph
Raw Report DataKMKE 290352Z 17007KT 8SM FEW070 FEW100 BKN120 00/M03 A2990 RMK AO2 SLP136 SNB11E25 P0000 T00001033
Traffic Incident Summary
Active as of:
Severity:
Category:
InformationThere was an issue retrieving the traffic information for this location. Please try a different location or try again shortly.
Advertisements
Track Severe Weather on mobile